Airfield :
LOGIN :

Register | Disclaimer

   EN    FR    IT 

 










Legend :    VFR   Marginal VFR   IFR   Intensive IFR   Very Intensive IFR
Visi :
Ceiling :
>= 8 km
>= 3000ft
5 to 8 km
1000 to 3000 ft
1500m to 5 km
500 to 1000 ft
800 to 1500m
200 to 500 ft
< 800m
< 200 ft
Symbols :   Thunderstorms  Fog  Heavy snow  Heavy precipitations  Wind > 20 kt
SIGMETs :     Misc.  Thunderstorms  Icing  Turbulence  Mountain Waves  Volcanic Ashes







- Airport Elevation : 459 ft
- IATA code : CER
- Download approach charts


LFRC - Cherbourg / Maupertus

CURRENT METAR :
  • 191630Z AUTO 22013KT 9999 SCT015 BKN021 BKN029 21/17 Q1012 TEMPO SHRA BKN008 BECMG 21015G25KT

EXPIRED METARs :
  • 191600Z AUTO 23014KT 9999 OVC016 20/17 Q1012 TEMPO SHRA BKN008 BECMG 21015G25KT
  • 191530Z AUTO 22012KT 190V270 9999 OVC019 21/16 Q1012 TEMPO SHRA BKN008 BECMG 21015G25KT
  • 191500Z AUTO 21015KT 9999 OVC019 20/16 Q1012 TEMPO SHRA BKN008 BECMG 21015G25KT
  • 191430Z AUTO 21013KT 9999 OVC018 21/16 Q1013 TEMPO SHRA BKN008 BECMG 21015G25KT
  • 191400Z AUTO 21014KT 180V240 9999 OVC018 20/16 Q1013 TEMPO SHRA BKN008 BECMG 21015G25KT

TAF TAF LFRC
Valid from the 19 at 15:00 until the 20 at 00:00 UTC


191400Z 1915/1924 21015G25KT 9999 BKN020
PROB40
TEMPO 1915/1924 5000 SHRA BKN008
TEMPO 1922/1924 4000 SHRA BKN030CB
PROB40
TEMPO 1922/1924 3000 TSRA
No reported NOTAMs for that airfield.



MET'MAP, your aeronautical weather chart ! - Copyright ORBIFLY December 2007 - Disclaimer

ORBIFLY MET'MAP TEAM :

Programming & Development : Alexandra Zaïnal
Concept & Development : Baudouin d'Aumeries
Co-Development & Prog : Marc-Olivier Méhu
Technical & hardware support : Manuel Goepfert

Contact : metmap@orbifly.com




SOURCES & CREDITS :

   NOAA